sensor_id;sensor_type;location;lat;lon;timestamp;temperature;humidity
4374;DHT22;2201;51.100;6.814;2023-01-04T00:01:42;8.50;98.20
4374;DHT22;2201;51.100;6.814;2023-01-04T00:04:10;8.60;98.20
4374;DHT22;2201;51.100;6.814;2023-01-04T00:06:37;8.60;98.20
4374;DHT22;2201;51.100;6.814;2023-01-04T00:09:04;8.70;98.20
4374;DHT22;2201;51.100;6.814;2023-01-04T00:11:30;8.70;98.20
4374;DHT22;2201;51.100;6.814;2023-01-04T00:13:58;8.80;98.20
4374;DHT22;2201;51.100;6.814;2023-01-04T00:16:26;8.80;98.20
4374;DHT22;2201;51.100;6.814;2023-01-04T00:18:54;8.80;98.20
4374;DHT22;2201;51.100;6.814;2023-01-04T00:21:23;8.90;98.20
4374;DHT22;2201;51.100;6.814;2023-01-04T00:23:52;8.90;98.20
4374;DHT22;2201;51.100;6.814;2023-01-04T00:26:21;8.90;98.20
4374;DHT22;2201;51.100;6.814;2023-01-04T00:28:52;9.00;98.20
4374;DHT22;2201;51.100;6.814;2023-01-04T00:31:19;9.00;98.20
4374;DHT22;2201;51.100;6.814;2023-01-04T00:33:46;9.10;98.20
4374;DHT22;2201;51.100;6.814;2023-01-04T00:36:14;9.10;98.20
4374;DHT22;2201;51.100;6.814;2023-01-04T00:38:42;9.10;98.20
4374;DHT22;2201;51.100;6.814;2023-01-04T00:41:10;9.10;98.20
4374;DHT22;2201;51.100;6.814;2023-01-04T00:43:37;9.10;98.20
4374;DHT22;2201;51.100;6.814;2023-01-04T00:46:04;9.20;98.20
4374;DHT22;2201;51.100;6.814;2023-01-04T00:48:31;9.20;98.20
4374;DHT22;2201;51.100;6.814;2023-01-04T00:50:58;9.20;98.20
4374;DHT22;2201;51.100;6.814;2023-01-04T00:53:25;9.20;98.20
4374;DHT22;2201;51.100;6.814;2023-01-04T00:55:58;9.20;98.20
4374;DHT22;2201;51.100;6.814;2023-01-04T00:58:25;9.20;98.20
4374;DHT22;2201;51.100;6.814;2023-01-04T01:00:52;9.20;98.20
4374;DHT22;2201;51.100;6.814;2023-01-04T01:03:24;9.10;98.20
4374;DHT22;2201;51.100;6.814;2023-01-04T01:05:51;9.10;98.20
4374;DHT22;2201;51.100;6.814;2023-01-04T01:08:18;9.10;98.20
4374;DHT22;2201;51.100;6.814;2023-01-04T01:10:50;9.10;98.20
4374;DHT22;2201;51.100;6.814;2023-01-04T01:13:19;9.10;98.20
4374;DHT22;2201;51.100;6.814;2023-01-04T01:15:46;9.10;98.20
4374;DHT22;2201;51.100;6.814;2023-01-04T01:18:13;9.00;98.20
4374;DHT22;2201;51.100;6.814;2023-01-04T01:20:41;9.00;98.20
4374;DHT22;2201;51.100;6.814;2023-01-04T01:23:10;9.00;98.20
4374;DHT22;2201;51.100;6.814;2023-01-04T01:25:37;9.00;98.20
4374;DHT22;2201;51.100;6.814;2023-01-04T01:28:04;9.00;98.20
4374;DHT22;2201;51.100;6.814;2023-01-04T01:30:32;8.90;98.20
4374;DHT22;2201;51.100;6.814;2023-01-04T01:32:59;8.90;98.20
4374;DHT22;2201;51.100;6.814;2023-01-04T01:35:26;8.90;98.20
4374;DHT22;2201;51.100;6.814;2023-01-04T01:37:52;8.90;98.20
4374;DHT22;2201;51.100;6.814;2023-01-04T01:40:19;8.90;98.20
4374;DHT22;2201;51.100;6.814;2023-01-04T01:42:46;8.90;98.20
4374;DHT22;2201;51.100;6.814;2023-01-04T01:45:25;8.90;98.20
4374;DHT22;2201;51.100;6.814;2023-01-04T01:47:57;8.80;98.20
4374;DHT22;2201;51.100;6.814;2023-01-04T01:50:27;8.80;98.20
4374;DHT22;2201;51.100;6.814;2023-01-04T01:52:58;8.80;98.20
4374;DHT22;2201;51.100;6.814;2023-01-04T01:55:28;8.90;98.20
4374;DHT22;2201;51.100;6.814;2023-01-04T01:57:56;8.90;98.20
4374;DHT22;2201;51.100;6.814;2023-01-04T02:00:24;8.90;98.20
4374;DHT22;2201;51.100;6.814;2023-01-04T02:03:08;8.90;98.20
4374;DHT22;2201;51.100;6.814;2023-01-04T02:05:38;8.90;98.20
4374;DHT22;2201;51.100;6.814;2023-01-04T02:08:05;8.90;98.20
4374;DHT22;2201;51.100;6.814;2023-01-04T02:10:33;9.00;98.20
4374;DHT22;2201;51.100;6.814;2023-01-04T02:13:04;9.00;98.20
4374;DHT22;2201;51.100;6.814;2023-01-04T02:15:38;9.00;98.20
4374;DHT22;2201;51.100;6.814;2023-01-04T02:18:11;8.90;98.20
4374;DHT22;2201;51.100;6.814;2023-01-04T02:20:46;8.90;98.20
4374;DHT22;2201;51.100;6.814;2023-01-04T02:23:53;8.90;98.20
4374;DHT22;2201;51.100;6.814;2023-01-04T02:26:50;8.90;98.20
4374;DHT22;2201;51.100;6.814;2023-01-04T02:29:57;8.80;98.20
4374;DHT22;2201;51.100;6.814;2023-01-04T02:32:41;8.80;98.20
4374;DHT22;2201;51.100;6.814;2023-01-04T02:35:18;8.80;98.20
4374;DHT22;2201;51.100;6.814;2023-01-04T02:37:49;8.80;98.20
4374;DHT22;2201;51.100;6.814;2023-01-04T02:40:26;8.80;98.20
4374;DHT22;2201;51.100;6.814;2023-01-04T02:42:59;8.80;98.20
4374;DHT22;2201;51.100;6.814;2023-01-04T02:45:53;8.80;98.20
4374;DHT22;2201;51.100;6.814;2023-01-04T02:48:22;8.90;98.20
4374;DHT22;2201;51.100;6.814;2023-01-04T02:51:22;8.90;98.20
4374;DHT22;2201;51.100;6.814;2023-01-04T02:53:50;8.90;98.20
4374;DHT22;2201;51.100;6.814;2023-01-04T02:56:20;8.90;98.20
4374;DHT22;2201;51.100;6.814;2023-01-04T02:59:09;8.90;98.20
4374;DHT22;2201;51.100;6.814;2023-01-04T03:01:41;9.00;98.20
4374;DHT22;2201;51.100;6.814;2023-01-04T03:04:40;9.00;98.20
4374;DHT22;2201;51.100;6.814;2023-01-04T03:07:32;9.00;98.20
4374;DHT22;2201;51.100;6.814;2023-01-04T03:10:06;9.00;98.20
4374;DHT22;2201;51.100;6.814;2023-01-04T03:12:37;9.10;98.20
4374;DHT22;2201;51.100;6.814;2023-01-04T03:15:10;9.10;98.20
4374;DHT22;2201;51.100;6.814;2023-01-04T03:17:44;9.10;98.20
4374;DHT22;2201;51.100;6.814;2023-01-04T03:20:16;9.20;98.20
4374;DHT22;2201;51.100;6.814;2023-01-04T03:22:47;9.20;98.20
4374;DHT22;2201;51.100;6.814;2023-01-04T03:25:39;9.20;98.20
4374;DHT22;2201;51.100;6.814;2023-01-04T03:28:27;9.30;98.20
4374;DHT22;2201;51.100;6.814;2023-01-04T03:31:20;9.30;98.20
4374;DHT22;2201;51.100;6.814;2023-01-04T03:34:05;9.40;98.20
4374;DHT22;2201;51.100;6.814;2023-01-04T03:36:57;9.40;98.20
4374;DHT22;2201;51.100;6.814;2023-01-04T03:39:33;9.40;98.20
4374;DHT22;2201;51.100;6.814;2023-01-04T03:42:21;9.40;98.20
4374;DHT22;2201;51.100;6.814;2023-01-04T03:45:13;9.50;98.20
4374;DHT22;2201;51.100;6.814;2023-01-04T03:48:04;9.50;98.20
4374;DHT22;2201;51.100;6.814;2023-01-04T03:50:53;9.50;98.20
4374;DHT22;2201;51.100;6.814;2023-01-04T03:53:24;9.60;98.20
4374;DHT22;2201;51.100;6.814;2023-01-04T03:55:53;9.60;98.20
4374;DHT22;2201;51.100;6.814;2023-01-04T03:58:21;9.60;98.20
4374;DHT22;2201;51.100;6.814;2023-01-04T04:00:48;9.60;98.20
4374;DHT22;2201;51.100;6.814;2023-01-04T04:03:15;9.70;98.20
4374;DHT22;2201;51.100;6.814;2023-01-04T04:05:43;9.70;98.20
4374;DHT22;2201;51.100;6.814;2023-01-04T04:08:30;9.70;98.20
4374;DHT22;2201;51.100;6.814;2023-01-04T04:10:58;9.70;98.20
4374;DHT22;2201;51.100;6.814;2023-01-04T04:13:47;9.80;98.20
4374;DHT22;2201;51.100;6.814;2023-01-04T04:16:14;9.80;98.20
4374;DHT22;2201;51.100;6.814;2023-01-04T04:18:41;9.80;98.20
4374;DHT22;2201;51.100;6.814;2023-01-04T04:21:08;9.80;98.20
4374;DHT22;2201;51.100;6.814;2023-01-04T04:23:36;9.80;98.20
4374;DHT22;2201;51.100;6.814;2023-01-04T04:26:02;9.80;98.20
4374;DHT22;2201;51.100;6.814;2023-01-04T04:28:29;9.80;98.20
4374;DHT22;2201;51.100;6.814;2023-01-04T04:30:56;9.80;98.20
4374;DHT22;2201;51.100;6.814;2023-01-04T04:33:23;9.80;98.20
4374;DHT22;2201;51.100;6.814;2023-01-04T04:35:50;9.80;98.20
4374;DHT22;2201;51.100;6.814;2023-01-04T04:38:17;9.80;98.20
4374;DHT22;2201;51.100;6.814;2023-01-04T04:40:45;9.80;98.20
4374;DHT22;2201;51.100;6.814;2023-01-04T04:43:31;9.80;98.20
4374;DHT22;2201;51.100;6.814;2023-01-04T04:45:59;9.80;98.20
4374;DHT22;2201;51.100;6.814;2023-01-04T04:48:26;9.80;98.20
4374;DHT22;2201;51.100;6.814;2023-01-04T04:50:52;9.80;98.20
4374;DHT22;2201;51.100;6.814;2023-01-04T04:53:19;9.80;98.20
4374;DHT22;2201;51.100;6.814;2023-01-04T04:55:49;9.80;98.20
4374;DHT22;2201;51.100;6.814;2023-01-04T04:58:16;9.90;98.20
4374;DHT22;2201;51.100;6.814;2023-01-04T05:00:43;9.90;98.20
4374;DHT22;2201;51.100;6.814;2023-01-04T05:03:09;9.90;98.20
4374;DHT22;2201;51.100;6.814;2023-01-04T05:05:36;9.90;98.20
4374;DHT22;2201;51.100;6.814;2023-01-04T05:08:03;9.90;98.20
4374;DHT22;2201;51.100;6.814;2023-01-04T05:10:30;9.90;98.20
4374;DHT22;2201;51.100;6.814;2023-01-04T05:12:58;9.90;98.20
4374;DHT22;2201;51.100;6.814;2023-01-04T05:15:24;9.90;98.20
4374;DHT22;2201;51.100;6.814;2023-01-04T05:17:50;10.00;98.20
4374;DHT22;2201;51.100;6.814;2023-01-04T05:20:17;10.00;98.20
4374;DHT22;2201;51.100;6.814;2023-01-04T05:22:44;10.00;98.20
4374;DHT22;2201;51.100;6.814;2023-01-04T05:25:10;10.00;98.20
4374;DHT22;2201;51.100;6.814;2023-01-04T05:27:37;10.00;98.20
4374;DHT22;2201;51.100;6.814;2023-01-04T05:30:06;10.10;98.20
4374;DHT22;2201;51.100;6.814;2023-01-04T05:32:51;10.10;98.20
4374;DHT22;2201;51.100;6.814;2023-01-04T05:35:17;10.10;98.20
4374;DHT22;2201;51.100;6.814;2023-01-04T05:37:44;10.10;98.20
4374;DHT22;2201;51.100;6.814;2023-01-04T05:40:11;10.10;98.20
4374;DHT22;2201;51.100;6.814;2023-01-04T05:42:38;10.10;98.20
4374;DHT22;2201;51.100;6.814;2023-01-04T05:45:06;10.10;98.20
4374;DHT22;2201;51.100;6.814;2023-01-04T05:47:34;10.20;98.20
4374;DHT22;2201;51.100;6.814;2023-01-04T05:50:01;10.20;98.20
4374;DHT22;2201;51.100;6.814;2023-01-04T05:52:30;10.20;98.20
4374;DHT22;2201;51.100;6.814;2023-01-04T05:54:57;10.20;98.20
4374;DHT22;2201;51.100;6.814;2023-01-04T05:57:23;10.30;98.20
4374;DHT22;2201;51.100;6.814;2023-01-04T05:59:50;10.40;98.20
4374;DHT22;2201;51.100;6.814;2023-01-04T06:02:21;10.40;98.20
4374;DHT22;2201;51.100;6.814;2023-01-04T06:04:48;10.50;98.20
4374;DHT22;2201;51.100;6.814;2023-01-04T06:07:15;10.50;98.20
4374;DHT22;2201;51.100;6.814;2023-01-04T06:09:43;10.60;98.20
4374;DHT22;2201;51.100;6.814;2023-01-04T06:12:09;10.70;98.20
4374;DHT22;2201;51.100;6.814;2023-01-04T06:14:36;10.80;98.20
4374;DHT22;2201;51.100;6.814;2023-01-04T06:17:03;10.80;98.20
4374;DHT22;2201;51.100;6.814;2023-01-04T06:19:31;10.80;98.20
4374;DHT22;2201;51.100;6.814;2023-01-04T06:21:58;10.80;98.20
4374;DHT22;2201;51.100;6.814;2023-01-04T06:24:25;10.80;98.20
4374;DHT22;2201;51.100;6.814;2023-01-04T06:26:52;10.80;98.20
4374;DHT22;2201;51.100;6.814;2023-01-04T06:29:19;10.80;98.20
4374;DHT22;2201;51.100;6.814;2023-01-04T06:31:46;10.80;98.20
4374;DHT22;2201;51.100;6.814;2023-01-04T06:34:14;10.80;98.20
4374;DHT22;2201;51.100;6.814;2023-01-04T06:36:42;10.80;98.20
4374;DHT22;2201;51.100;6.814;2023-01-04T06:39:09;10.80;98.20
4374;DHT22;2201;51.100;6.814;2023-01-04T06:41:36;10.80;98.20
4374;DHT22;2201;51.100;6.814;2023-01-04T06:44:03;10.90;98.20
4374;DHT22;2201;51.100;6.814;2023-01-04T06:46:30;10.90;98.20
4374;DHT22;2201;51.100;6.814;2023-01-04T06:48:56;10.90;98.20
4374;DHT22;2201;51.100;6.814;2023-01-04T06:51:23;11.00;98.20
4374;DHT22;2201;51.100;6.814;2023-01-04T06:53:51;11.00;98.20
4374;DHT22;2201;51.100;6.814;2023-01-04T06:56:18;11.00;98.20
4374;DHT22;2201;51.100;6.814;2023-01-04T06:58:45;11.10;98.20
4374;DHT22;2201;51.100;6.814;2023-01-04T07:01:11;11.20;98.20
4374;DHT22;2201;51.100;6.814;2023-01-04T07:03:38;11.20;98.20
4374;DHT22;2201;51.100;6.814;2023-01-04T07:06:06;11.30;98.20
4374;DHT22;2201;51.100;6.814;2023-01-04T07:08:33;11.30;98.20
4374;DHT22;2201;51.100;6.814;2023-01-04T07:11:01;11.40;98.20
4374;DHT22;2201;51.100;6.814;2023-01-04T07:13:28;11.40;98.20
4374;DHT22;2201;51.100;6.814;2023-01-04T07:15:55;11.40;98.20
4374;DHT22;2201;51.100;6.814;2023-01-04T07:18:22;11.50;98.20
4374;DHT22;2201;51.100;6.814;2023-01-04T07:20:49;11.50;98.20
4374;DHT22;2201;51.100;6.814;2023-01-04T07:23:16;11.50;98.20
4374;DHT22;2201;51.100;6.814;2023-01-04T07:25:42;11.60;98.20
4374;DHT22;2201;51.100;6.814;2023-01-04T07:28:11;11.60;98.20
4374;DHT22;2201;51.100;6.814;2023-01-04T07:30:57;11.60;98.20
4374;DHT22;2201;51.100;6.814;2023-01-04T07:33:24;11.60;98.20
4374;DHT22;2201;51.100;6.814;2023-01-04T07:35:51;11.60;98.20
4374;DHT22;2201;51.100;6.814;2023-01-04T07:38:17;11.70;98.20
4374;DHT22;2201;51.100;6.814;2023-01-04T07:40:44;11.70;98.20
4374;DHT22;2201;51.100;6.814;2023-01-04T07:43:12;11.70;98.20
4374;DHT22;2201;51.100;6.814;2023-01-04T07:45:42;11.70;98.20
4374;DHT22;2201;51.100;6.814;2023-01-04T07:48:10;11.70;98.20
4374;DHT22;2201;51.100;6.814;2023-01-04T07:50:37;11.80;98.20
4374;DHT22;2201;51.100;6.814;2023-01-04T07:53:04;11.80;98.20
4374;DHT22;2201;51.100;6.814;2023-01-04T07:55:31;11.80;98.20
4374;DHT22;2201;51.100;6.814;2023-01-04T07:57:57;11.80;98.20
4374;DHT22;2201;51.100;6.814;2023-01-04T08:00:25;11.80;98.20
4374;DHT22;2201;51.100;6.814;2023-01-04T08:02:52;11.80;98.20
4374;DHT22;2201;51.100;6.814;2023-01-04T08:05:19;11.90;98.20
4374;DHT22;2201;51.100;6.814;2023-01-04T08:07:47;11.90;98.20
4374;DHT22;2201;51.100;6.814;2023-01-04T08:10:14;11.90;98.20
4374;DHT22;2201;51.100;6.814;2023-01-04T08:12:40;11.90;98.20
4374;DHT22;2201;51.100;6.814;2023-01-04T08:15:08;11.90;98.20
4374;DHT22;2201;51.100;6.814;2023-01-04T08:17:36;11.90;98.20
4374;DHT22;2201;51.100;6.814;2023-01-04T08:20:03;11.90;98.20
4374;DHT22;2201;51.100;6.814;2023-01-04T08:22:31;11.90;98.20
4374;DHT22;2201;51.100;6.814;2023-01-04T08:24:58;12.00;98.20
4374;DHT22;2201;51.100;6.814;2023-01-04T08:27:25;12.00;98.20
4374;DHT22;2201;51.100;6.814;2023-01-04T08:29:51;12.00;98.20
4374;DHT22;2201;51.100;6.814;2023-01-04T08:32:18;12.00;98.20
4374;DHT22;2201;51.100;6.814;2023-01-04T08:34:46;12.00;98.20
4374;DHT22;2201;51.100;6.814;2023-01-04T08:37:13;12.00;98.20
4374;DHT22;2201;51.100;6.814;2023-01-04T08:39:40;12.00;98.20
4374;DHT22;2201;51.100;6.814;2023-01-04T08:42:06;12.00;98.20
4374;DHT22;2201;51.100;6.814;2023-01-04T08:44:33;12.00;98.20
4374;DHT22;2201;51.100;6.814;2023-01-04T08:47:00;12.00;98.20
4374;DHT22;2201;51.100;6.814;2023-01-04T08:49:27;12.00;98.20
4374;DHT22;2201;51.100;6.814;2023-01-04T08:51:55;12.10;98.20
4374;DHT22;2201;51.100;6.814;2023-01-04T08:54:22;12.10;98.20
4374;DHT22;2201;51.100;6.814;2023-01-04T08:56:49;12.10;98.20
4374;DHT22;2201;51.100;6.814;2023-01-04T08:59:15;12.10;98.20
4374;DHT22;2201;51.100;6.814;2023-01-04T09:01:42;12.10;98.20
4374;DHT22;2201;51.100;6.814;2023-01-04T09:04:10;12.20;98.20
4374;DHT22;2201;51.100;6.814;2023-01-04T09:06:37;12.20;98.20
4374;DHT22;2201;51.100;6.814;2023-01-04T09:09:05;12.20;98.20
4374;DHT22;2201;51.100;6.814;2023-01-04T09:11:32;12.20;98.20
4374;DHT22;2201;51.100;6.814;2023-01-04T09:14:00;12.30;98.20
4374;DHT22;2201;51.100;6.814;2023-01-04T09:16:26;12.30;98.20
4374;DHT22;2201;51.100;6.814;2023-01-04T09:18:54;12.30;98.20
4374;DHT22;2201;51.100;6.814;2023-01-04T09:21:21;12.30;98.20
4374;DHT22;2201;51.100;6.814;2023-01-04T09:23:48;12.40;98.20
4374;DHT22;2201;51.100;6.814;2023-01-04T09:26:18;12.40;98.20
4374;DHT22;2201;51.100;6.814;2023-01-04T09:28:47;12.40;98.20
4374;DHT22;2201;51.100;6.814;2023-01-04T09:31:15;12.40;98.20
4374;DHT22;2201;51.100;6.814;2023-01-04T09:33:43;12.50;98.20
4374;DHT22;2201;51.100;6.814;2023-01-04T09:36:14;12.50;98.20
4374;DHT22;2201;51.100;6.814;2023-01-04T09:38:41;12.50;98.20
4374;DHT22;2201;51.100;6.814;2023-01-04T09:41:17;12.60;98.20
4374;DHT22;2201;51.100;6.814;2023-01-04T09:43:47;12.60;98.20
4374;DHT22;2201;51.100;6.814;2023-01-04T09:46:21;12.60;98.20
4374;DHT22;2201;51.100;6.814;2023-01-04T09:48:50;12.60;98.20
4374;DHT22;2201;51.100;6.814;2023-01-04T09:51:20;12.60;98.20
4374;DHT22;2201;51.100;6.814;2023-01-04T09:53:52;12.60;98.20
4374;DHT22;2201;51.100;6.814;2023-01-04T09:56:26;12.60;98.20
4374;DHT22;2201;51.100;6.814;2023-01-04T09:58:55;12.70;98.20
4374;DHT22;2201;51.100;6.814;2023-01-04T10:01:25;12.70;98.20
4374;DHT22;2201;51.100;6.814;2023-01-04T10:16:46;12.60;98.20
4374;DHT22;2201;51.100;6.814;2023-01-04T10:19:26;12.60;98.20
4374;DHT22;2201;51.100;6.814;2023-01-04T10:21:59;12.50;98.20
4374;DHT22;2201;51.100;6.814;2023-01-04T10:24:47;12.50;98.20
4374;DHT22;2201;51.100;6.814;2023-01-04T10:27:30;12.50;98.20
4374;DHT22;2201;51.100;6.814;2023-01-04T10:30:12;12.50;98.20
4374;DHT22;2201;51.100;6.814;2023-01-04T10:32:45;12.40;98.20
4374;DHT22;2201;51.100;6.814;2023-01-04T10:35:18;12.40;98.20
4374;DHT22;2201;51.100;6.814;2023-01-04T10:37:50;12.40;98.20
4374;DHT22;2201;51.100;6.814;2023-01-04T10:40:18;12.40;98.20
4374;DHT22;2201;51.100;6.814;2023-01-04T10:42:52;12.40;98.20
4374;DHT22;2201;51.100;6.814;2023-01-04T10:45:29;12.40;98.20
4374;DHT22;2201;51.100;6.814;2023-01-04T10:48:06;12.30;98.20
4374;DHT22;2201;51.100;6.814;2023-01-04T10:50:37;12.40;98.20
4374;DHT22;2201;51.100;6.814;2023-01-04T10:53:11;12.40;98.20
4374;DHT22;2201;51.100;6.814;2023-01-04T10:55:44;12.40;98.20
4374;DHT22;2201;51.100;6.814;2023-01-04T10:58:19;12.40;98.20
4374;DHT22;2201;51.100;6.814;2023-01-04T11:04:22;12.40;98.20
4374;DHT22;2201;51.100;6.814;2023-01-04T11:07:12;12.40;98.20
4374;DHT22;2201;51.100;6.814;2023-01-04T11:09:45;12.40;98.20
4374;DHT22;2201;51.100;6.814;2023-01-04T11:12:18;12.50;98.20
4374;DHT22;2201;51.100;6.814;2023-01-04T11:14:47;12.40;98.20
4374;DHT22;2201;51.100;6.814;2023-01-04T11:17:14;12.40;98.20
4374;DHT22;2201;51.100;6.814;2023-01-04T11:19:43;12.40;98.20
4374;DHT22;2201;51.100;6.814;2023-01-04T11:22:14;12.40;98.20
4374;DHT22;2201;51.100;6.814;2023-01-04T11:24:43;12.40;98.20
4374;DHT22;2201;51.100;6.814;2023-01-04T11:27:14;12.40;98.20
4374;DHT22;2201;51.100;6.814;2023-01-04T11:29:47;12.40;98.20
4374;DHT22;2201;51.100;6.814;2023-01-04T11:32:21;12.50;98.20
4374;DHT22;2201;51.100;6.814;2023-01-04T11:34:55;12.50;98.20
4374;DHT22;2201;51.100;6.814;2023-01-04T11:37:25;12.50;98.20
4374;DHT22;2201;51.100;6.814;2023-01-04T11:40:18;12.50;98.20
4374;DHT22;2201;51.100;6.814;2023-01-04T11:42:46;12.60;98.20
4374;DHT22;2201;51.100;6.814;2023-01-04T11:45:19;12.60;98.20
4374;DHT22;2201;51.100;6.814;2023-01-04T11:47:48;12.60;98.20
4374;DHT22;2201;51.100;6.814;2023-01-04T11:50:40;12.60;98.20
4374;DHT22;2201;51.100;6.814;2023-01-04T11:53:22;12.70;98.20
4374;DHT22;2201;51.100;6.814;2023-01-04T11:55:49;12.70;98.20
4374;DHT22;2201;51.100;6.814;2023-01-04T11:58:18;12.70;98.20
4374;DHT22;2201;51.100;6.814;2023-01-04T12:00:50;12.70;98.20
4374;DHT22;2201;51.100;6.814;2023-01-04T12:03:22;12.70;98.20
4374;DHT22;2201;51.100;6.814;2023-01-04T12:05:52;12.80;98.20
4374;DHT22;2201;51.100;6.814;2023-01-04T12:08:27;12.80;98.20
4374;DHT22;2201;51.100;6.814;2023-01-04T12:10:55;12.80;98.20
4374;DHT22;2201;51.100;6.814;2023-01-04T12:13:22;12.80;98.20
4374;DHT22;2201;51.100;6.814;2023-01-04T12:15:57;12.90;98.20
4374;DHT22;2201;51.100;6.814;2023-01-04T12:18:28;12.90;98.20
4374;DHT22;2201;51.100;6.814;2023-01-04T12:21:00;12.90;98.20
4374;DHT22;2201;51.100;6.814;2023-01-04T12:23:28;12.90;98.20
4374;DHT22;2201;51.100;6.814;2023-01-04T12:25:55;12.90;98.20
4374;DHT22;2201;51.100;6.814;2023-01-04T12:28:31;13.00;98.20
4374;DHT22;2201;51.100;6.814;2023-01-04T12:31:25;13.00;98.20
4374;DHT22;2201;51.100;6.814;2023-01-04T12:33:54;13.00;98.20
4374;DHT22;2201;51.100;6.814;2023-01-04T12:36:53;13.00;98.20
4374;DHT22;2201;51.100;6.814;2023-01-04T12:39:38;12.90;98.20
4374;DHT22;2201;51.100;6.814;2023-01-04T12:42:18;12.90;98.20
4374;DHT22;2201;51.100;6.814;2023-01-04T12:45:15;12.90;98.20
4374;DHT22;2201;51.100;6.814;2023-01-04T12:47:53;12.90;98.20
4374;DHT22;2201;51.100;6.814;2023-01-04T12:51:15;12.90;98.20
4374;DHT22;2201;51.100;6.814;2023-01-04T12:54:07;12.80;98.20
4374;DHT22;2201;51.100;6.814;2023-01-04T12:57:21;12.80;98.20
4374;DHT22;2201;51.100;6.814;2023-01-04T12:59:53;12.80;98.20
4374;DHT22;2201;51.100;6.814;2023-01-04T13:02:22;12.80;98.20
4374;DHT22;2201;51.100;6.814;2023-01-04T13:04:50;12.80;98.20
4374;DHT22;2201;51.100;6.814;2023-01-04T13:07:20;12.80;98.20
4374;DHT22;2201;51.100;6.814;2023-01-04T13:09:55;12.80;98.20
4374;DHT22;2201;51.100;6.814;2023-01-04T13:12:50;12.90;98.20
4374;DHT22;2201;51.100;6.814;2023-01-04T13:15:23;12.90;98.20
4374;DHT22;2201;51.100;6.814;2023-01-04T13:17:51;12.90;98.20
4374;DHT22;2201;51.100;6.814;2023-01-04T13:20:20;12.90;98.20
4374;DHT22;2201;51.100;6.814;2023-01-04T13:22:51;12.90;98.20
4374;DHT22;2201;51.100;6.814;2023-01-04T13:25:21;12.90;98.20
4374;DHT22;2201;51.100;6.814;2023-01-04T13:27:57;12.90;98.20
4374;DHT22;2201;51.100;6.814;2023-01-04T13:30:29;12.90;98.20
4374;DHT22;2201;51.100;6.814;2023-01-04T13:32:56;12.90;98.20
4374;DHT22;2201;51.100;6.814;2023-01-04T13:35:24;12.90;98.20
4374;DHT22;2201;51.100;6.814;2023-01-04T13:37:51;12.90;98.20
4374;DHT22;2201;51.100;6.814;2023-01-04T13:40:23;12.90;98.20
4374;DHT22;2201;51.100;6.814;2023-01-04T13:43:03;12.90;98.20
4374;DHT22;2201;51.100;6.814;2023-01-04T13:45:45;12.90;98.20
4374;DHT22;2201;51.100;6.814;2023-01-04T13:48:17;13.00;98.20
4374;DHT22;2201;51.100;6.814;2023-01-04T13:50:58;13.00;98.20
4374;DHT22;2201;51.100;6.814;2023-01-04T13:53:27;13.00;98.20
4374;DHT22;2201;51.100;6.814;2023-01-04T13:55:57;13.00;98.20
4374;DHT22;2201;51.100;6.814;2023-01-04T13:58:26;13.00;98.20
4374;DHT22;2201;51.100;6.814;2023-01-04T14:00:55;13.00;98.20
4374;DHT22;2201;51.100;6.814;2023-01-04T14:03:33;13.00;98.20
4374;DHT22;2201;51.100;6.814;2023-01-04T14:06:16;13.00;98.20
4374;DHT22;2201;51.100;6.814;2023-01-04T14:08:49;13.00;98.20
4374;DHT22;2201;51.100;6.814;2023-01-04T14:11:22;13.00;98.20
4374;DHT22;2201;51.100;6.814;2023-01-04T14:14:22;13.10;98.20
4374;DHT22;2201;51.100;6.814;2023-01-04T14:16:50;13.10;98.20
4374;DHT22;2201;51.100;6.814;2023-01-04T14:19:41;13.10;98.20
4374;DHT22;2201;51.100;6.814;2023-01-04T14:22:31;13.10;98.20
4374;DHT22;2201;51.100;6.814;2023-01-04T14:25:00;13.10;98.20
4374;DHT22;2201;51.100;6.814;2023-01-04T14:27:34;13.10;98.20
4374;DHT22;2201;51.100;6.814;2023-01-04T14:30:14;13.10;98.20
4374;DHT22;2201;51.100;6.814;2023-01-04T14:32:41;13.10;98.20
4374;DHT22;2201;51.100;6.814;2023-01-04T14:35:12;13.10;98.20
4374;DHT22;2201;51.100;6.814;2023-01-04T14:37:39;13.10;98.20
4374;DHT22;2201;51.100;6.814;2023-01-04T14:40:13;13.10;98.20
4374;DHT22;2201;51.100;6.814;2023-01-04T14:42:42;13.20;98.20
4374;DHT22;2201;51.100;6.814;2023-01-04T14:45:11;13.10;98.20
4374;DHT22;2201;51.100;6.814;2023-01-04T14:47:38;13.20;98.20
4374;DHT22;2201;51.100;6.814;2023-01-04T14:50:07;13.20;98.20
4374;DHT22;2201;51.100;6.814;2023-01-04T14:52:34;13.20;98.20
4374;DHT22;2201;51.100;6.814;2023-01-04T14:55:01;13.20;98.20
4374;DHT22;2201;51.100;6.814;2023-01-04T14:57:29;13.20;98.20
4374;DHT22;2201;51.100;6.814;2023-01-04T14:59:57;13.30;98.20
4374;DHT22;2201;51.100;6.814;2023-01-04T15:02:24;13.30;98.20
4374;DHT22;2201;51.100;6.814;2023-01-04T15:04:54;13.30;98.20
4374;DHT22;2201;51.100;6.814;2023-01-04T15:07:32;13.30;98.20
4374;DHT22;2201;51.100;6.814;2023-01-04T15:10:00;13.30;98.20
4374;DHT22;2201;51.100;6.814;2023-01-04T15:12:27;13.30;98.20
4374;DHT22;2201;51.100;6.814;2023-01-04T15:14:54;13.30;98.20
4374;DHT22;2201;51.100;6.814;2023-01-04T15:17:22;13.30;98.20
4374;DHT22;2201;51.100;6.814;2023-01-04T15:19:48;13.40;98.20
4374;DHT22;2201;51.100;6.814;2023-01-04T15:22:15;13.40;98.20
4374;DHT22;2201;51.100;6.814;2023-01-04T15:24:42;13.40;98.20
4374;DHT22;2201;51.100;6.814;2023-01-04T15:27:09;13.40;98.20
4374;DHT22;2201;51.100;6.814;2023-01-04T15:29:35;13.40;98.20
4374;DHT22;2201;51.100;6.814;2023-01-04T15:32:03;13.40;98.20
4374;DHT22;2201;51.100;6.814;2023-01-04T15:34:31;13.40;98.20
4374;DHT22;2201;51.100;6.814;2023-01-04T15:47:12;13.40;98.20
4374;DHT22;2201;51.100;6.814;2023-01-04T15:49:40;13.40;98.20
4374;DHT22;2201;51.100;6.814;2023-01-04T15:52:07;13.40;98.20
4374;DHT22;2201;51.100;6.814;2023-01-04T15:54:34;13.30;98.20
4374;DHT22;2201;51.100;6.814;2023-01-04T15:57:00;13.30;98.20
4374;DHT22;2201;51.100;6.814;2023-01-04T15:59:27;13.30;98.20
4374;DHT22;2201;51.100;6.814;2023-01-04T16:01:54;13.30;98.20
4374;DHT22;2201;51.100;6.814;2023-01-04T16:04:21;13.30;98.20
4374;DHT22;2201;51.100;6.814;2023-01-04T16:06:49;13.30;98.20
4374;DHT22;2201;51.100;6.814;2023-01-04T16:09:16;13.20;98.20
4374;DHT22;2201;51.100;6.814;2023-01-04T16:11:43;13.10;98.20
4374;DHT22;2201;51.100;6.814;2023-01-04T16:14:24;13.00;98.20
4374;DHT22;2201;51.100;6.814;2023-01-04T16:16:51;13.00;98.20
4374;DHT22;2201;51.100;6.814;2023-01-04T16:19:18;12.90;98.20
4374;DHT22;2201;51.100;6.814;2023-01-04T16:21:45;12.80;98.20
4374;DHT22;2201;51.100;6.814;2023-01-04T16:24:13;12.80;98.20
4374;DHT22;2201;51.100;6.814;2023-01-04T16:26:40;12.70;98.20
4374;DHT22;2201;51.100;6.814;2023-01-04T16:29:10;12.70;98.20
4374;DHT22;2201;51.100;6.814;2023-01-04T16:31:38;12.70;98.20
4374;DHT22;2201;51.100;6.814;2023-01-04T16:34:04;12.70;98.20
4374;DHT22;2201;51.100;6.814;2023-01-04T16:36:31;12.70;98.20
4374;DHT22;2201;51.100;6.814;2023-01-04T16:39:00;12.70;98.20
4374;DHT22;2201;51.100;6.814;2023-01-04T16:41:29;12.70;98.20
4374;DHT22;2201;51.100;6.814;2023-01-04T16:43:56;12.70;98.20
4374;DHT22;2201;51.100;6.814;2023-01-04T16:46:25;12.70;98.20
4374;DHT22;2201;51.100;6.814;2023-01-04T16:48:54;12.70;98.20
4374;DHT22;2201;51.100;6.814;2023-01-04T16:51:21;12.80;98.20
4374;DHT22;2201;51.100;6.814;2023-01-04T16:53:49;12.80;98.20
4374;DHT22;2201;51.100;6.814;2023-01-04T16:56:18;12.80;98.20
4374;DHT22;2201;51.100;6.814;2023-01-04T16:58:46;12.80;98.20
4374;DHT22;2201;51.100;6.814;2023-01-04T17:01:15;12.80;98.20